Airfield :
LOGIN :

Register | Disclaimer

   EN    FR    IT 

 










Legend :    VFR   Marginal VFR   IFR   Intensive IFR   Very Intensive IFR
Visi :
Ceiling :
>= 8 km
>= 3000ft
5 to 8 km
1000 to 3000 ft
1500m to 5 km
500 to 1000 ft
800 to 1500m
200 to 500 ft
< 800m
< 200 ft
Symbols :   Thunderstorms  Fog  Heavy snow  Heavy precipitations  Wind > 20 kt
SIGMETs :     Misc.  Thunderstorms  Icing  Turbulence  Mountain Waves  Volcanic Ashes







- Airport Elevation : 1411 ft
- IATA code : SZG


LOWS - Salzburg

CURRENT METAR :
  • 202320Z AUTO 17003KT 5000 0200S R15/P1500U R33/0250D FZBCFG FEW000 SCT001 M04/M04 Q1010

EXPIRED METARs :
  • 202250Z AUTO VRB02KT 5000 BR FEW006 M03/M03 Q1010
  • 202220Z AUTO 18002KT 5000 BR NSC M03/M04 Q1010
  • 202150Z VRB01KT 5000 BR FEW008 M03/M04 Q1010 TEMPO 4000 BKN009
  • 202120Z 23002KT 9999 FEW008 M03/M03 Q1010 TEMPO BKN009
  • 202050Z 29003KT 9999 FEW010 M02/M04 Q1009 TEMPO BKN010
  • 202020Z 31002KT 9999 FEW009 M02/M03 Q1009 NOSIG

TAF AMD TAF LOWS
Valid from the 20 at 21:00 until the 21 at 18:00 UTC


202110Z 2021/2118 33005KT 9999 FEW010 TX04/2113Z TN00/2101Z
BECMG 2021/2024 BKN012
TEMPO 2021/2109 BKN009
PROB30 2110/2117 SCT014
No reported NOTAMs for that airfield.



MET'MAP, your aeronautical weather chart ! - Copyright ORBIFLY December 2007 - Disclaimer

ORBIFLY MET'MAP TEAM :

Programming & Development : Alexandra Zaïnal
Concept & Development : Baudouin d'Aumeries
Co-Development & Prog : Marc-Olivier Méhu
Technical & hardware support : Manuel Goepfert

Contact : metmap@orbifly.com




SOURCES & CREDITS :

   NOAA